sensor_id;sensor_type;location;lat;lon;timestamp;pressure;altitude;pressure_sealevel;temperature;humidity
4617;BME280;2321;42.704;23.384;2023-12-07T00:01:21;95083.94;;;6.04;100.00
4617;BME280;2321;42.704;23.384;2023-12-07T00:03:48;95084.13;;;6.03;100.00
4617;BME280;2321;42.704;23.384;2023-12-07T00:06:15;95081.50;;;6.03;100.00
4617;BME280;2321;42.704;23.384;2023-12-07T00:08:42;95081.66;;;6.01;100.00
4617;BME280;2321;42.704;23.384;2023-12-07T00:11:08;95081.97;;;6.06;100.00
4617;BME280;2321;42.704;23.384;2023-12-07T00:13:35;95084.31;;;6.09;100.00
4617;BME280;2321;42.704;23.384;2023-12-07T00:16:02;95081.66;;;6.09;100.00
4617;BME280;2321;42.704;23.384;2023-12-07T00:18:30;95090.59;;;6.08;100.00
4617;BME280;2321;42.704;23.384;2023-12-07T00:20:57;95086.94;;;6.09;100.00
4617;BME280;2321;42.704;23.384;2023-12-07T00:23:23;95084.13;;;6.11;100.00
4617;BME280;2321;42.704;23.384;2023-12-07T00:25:50;95091.72;;;6.14;100.00
4617;BME280;2321;42.704;23.384;2023-12-07T00:28:17;95087.25;;;6.15;100.00
4617;BME280;2321;42.704;23.384;2023-12-07T00:30:44;95085.94;;;6.19;100.00
4617;BME280;2321;42.704;23.384;2023-12-07T00:33:10;95085.94;;;6.19;100.00
4617;BME280;2321;42.704;23.384;2023-12-07T00:35:38;95076.63;;;6.23;100.00
4617;BME280;2321;42.704;23.384;2023-12-07T00:38:05;95083.22;;;6.27;100.00
4617;BME280;2321;42.704;23.384;2023-12-07T00:40:33;95088.19;;;6.30;100.00
4617;BME280;2321;42.704;23.384;2023-12-07T00:43:02;95089.16;;;6.29;100.00
4617;BME280;2321;42.704;23.384;2023-12-07T00:45:29;95079.59;;;6.28;100.00
4617;BME280;2321;42.704;23.384;2023-12-07T00:47:56;95082.59;;;6.25;100.00
4617;BME280;2321;42.704;23.384;2023-12-07T00:50:22;95086.88;;;6.26;100.00
4617;BME280;2321;42.704;23.384;2023-12-07T00:52:51;95089.84;;;6.31;100.00
4617;BME280;2321;42.704;23.384;2023-12-07T00:55:18;95088.00;;;6.32;100.00
4617;BME280;2321;42.704;23.384;2023-12-07T00:57:44;95075.94;;;6.29;100.00
4617;BME280;2321;42.704;23.384;2023-12-07T01:00:11;95083.88;;;6.29;100.00
4617;BME280;2321;42.704;23.384;2023-12-07T01:02:38;95075.94;;;6.29;100.00
4617;BME280;2321;42.704;23.384;2023-12-07T01:05:05;95079.72;;;6.35;100.00
4617;BME280;2321;42.704;23.384;2023-12-07T01:07:32;95086.84;;;6.35;100.00
4617;BME280;2321;42.704;23.384;2023-12-07T01:10:00;95082.19;;;6.37;100.00
4617;BME280;2321;42.704;23.384;2023-12-07T01:12:27;95078.56;;;6.38;100.00
4617;BME280;2321;42.704;23.384;2023-12-07T01:14:53;95080.38;;;6.37;100.00
4617;BME280;2321;42.704;23.384;2023-12-07T01:17:20;95081.84;;;6.40;100.00
4617;BME280;2321;42.704;23.384;2023-12-07T01:19:47;95082.84;;;6.39;100.00
4617;BME280;2321;42.704;23.384;2023-12-07T01:22:14;95075.25;;;6.36;100.00
4617;BME280;2321;42.704;23.384;2023-12-07T01:24:40;95069.97;;;6.36;100.00
4617;BME280;2321;42.704;23.384;2023-12-07T01:27:09;95078.72;;;6.36;100.00
4617;BME280;2321;42.704;23.384;2023-12-07T01:29:35;95076.72;;;6.38;100.00
4617;BME280;2321;42.704;23.384;2023-12-07T01:32:02;95081.03;;;6.39;100.00
4617;BME280;2321;42.704;23.384;2023-12-07T01:34:29;95070.44;;;6.39;100.00
4617;BME280;2321;42.704;23.384;2023-12-07T01:36:56;95070.63;;;6.38;100.00
4617;BME280;2321;42.704;23.384;2023-12-07T01:39:22;95065.97;;;6.40;100.00
4617;BME280;2321;42.704;23.384;2023-12-07T01:41:49;95069.25;;;6.42;100.00
4617;BME280;2321;42.704;23.384;2023-12-07T01:44:18;95067.78;;;6.39;100.00
4617;BME280;2321;42.704;23.384;2023-12-07T01:46:45;95066.97;;;6.39;100.00
4617;BME280;2321;42.704;23.384;2023-12-07T01:49:12;95065.69;;;6.35;100.00
4617;BME280;2321;42.704;23.384;2023-12-07T01:51:38;95059.25;;;6.29;100.00
4617;BME280;2321;42.704;23.384;2023-12-07T01:54:05;95059.13;;;6.22;100.00
4617;BME280;2321;42.704;23.384;2023-12-07T01:56:32;95059.00;;;6.15;100.00
4617;BME280;2321;42.704;23.384;2023-12-07T01:58:59;95061.16;;;6.12;100.00
4617;BME280;2321;42.704;23.384;2023-12-07T02:01:27;95041.34;;;5.99;100.00
4617;BME280;2321;42.704;23.384;2023-12-07T02:03:54;95064.63;;;6.12;100.00
4617;BME280;2321;42.704;23.384;2023-12-07T02:06:20;95064.16;;;6.08;100.00
4617;BME280;2321;42.704;23.384;2023-12-07T02:08:47;95059.34;;;6.04;100.00
4617;BME280;2321;42.704;23.384;2023-12-07T02:11:14;95063.97;;;6.02;100.00
4617;BME280;2321;42.704;23.384;2023-12-07T02:13:41;95065.00;;;6.01;100.00
4617;BME280;2321;42.704;23.384;2023-12-07T02:16:11;95059.38;;;5.95;100.00
4617;BME280;2321;42.704;23.384;2023-12-07T02:18:42;95058.38;;;5.96;100.00
4617;BME280;2321;42.704;23.384;2023-12-07T02:21:12;95054.75;;;5.97;100.00
4617;BME280;2321;42.704;23.384;2023-12-07T02:23:40;95054.91;;;5.96;100.00
4617;BME280;2321;42.704;23.384;2023-12-07T02:29:12;95055.06;;;6.03;100.00
4617;BME280;2321;42.704;23.384;2023-12-07T02:31:39;95053.88;;;6.05;100.00
4617;BME280;2321;42.704;23.384;2023-12-07T02:34:06;95049.75;;;6.11;100.00
4617;BME280;2321;42.704;23.384;2023-12-07T02:36:32;95038.19;;;6.12;100.00
4617;BME280;2321;42.704;23.384;2023-12-07T02:39:01;95040.66;;;6.14;100.00
4617;BME280;2321;42.704;23.384;2023-12-07T02:41:28;95043.97;;;6.16;100.00
4617;BME280;2321;42.704;23.384;2023-12-07T02:43:56;95046.06;;;6.20;100.00
4617;BME280;2321;42.704;23.384;2023-12-07T02:46:25;95043.50;;;6.12;100.00
4617;BME280;2321;42.704;23.384;2023-12-07T02:48:52;95045.50;;;6.10;100.00
4617;BME280;2321;42.704;23.384;2023-12-07T02:51:19;95050.78;;;6.10;100.00
4617;BME280;2321;42.704;23.384;2023-12-07T02:53:45;95044.81;;;6.08;100.00
4617;BME280;2321;42.704;23.384;2023-12-07T02:56:12;95051.09;;;6.07;100.00
4617;BME280;2321;42.704;23.384;2023-12-07T02:58:38;95052.13;;;5.97;100.00
4617;BME280;2321;42.704;23.384;2023-12-07T03:01:05;95044.19;;;5.97;100.00
4617;BME280;2321;42.704;23.384;2023-12-07T03:03:33;95051.94;;;5.99;100.00
4617;BME280;2321;42.704;23.384;2023-12-07T03:06:00;95058.69;;;6.02;100.00
4617;BME280;2321;42.704;23.384;2023-12-07T03:08:26;95062.81;;;6.04;100.00
4617;BME280;2321;42.704;23.384;2023-12-07T03:10:53;95055.22;;;6.09;100.00
4617;BME280;2321;42.704;23.384;2023-12-07T03:13:20;95058.50;;;6.12;100.00
4617;BME280;2321;42.704;23.384;2023-12-07T03:15:47;95058.19;;;6.15;100.00
4617;BME280;2321;42.704;23.384;2023-12-07T03:18:14;95067.56;;;6.17;100.00
4617;BME280;2321;42.704;23.384;2023-12-07T03:20:42;95063.13;;;6.18;100.00
4617;BME280;2321;42.704;23.384;2023-12-07T03:23:09;95060.97;;;6.21;100.00
4617;BME280;2321;42.704;23.384;2023-12-07T03:25:35;95065.91;;;6.25;100.00
4617;BME280;2321;42.704;23.384;2023-12-07T03:28:02;95068.34;;;6.26;100.00
4617;BME280;2321;42.704;23.384;2023-12-07T03:30:29;95071.00;;;6.26;100.00
4617;BME280;2321;42.704;23.384;2023-12-07T03:32:56;95080.94;;;6.24;100.00
4617;BME280;2321;42.704;23.384;2023-12-07T03:35:23;95076.63;;;6.23;100.00
4617;BME280;2321;42.704;23.384;2023-12-07T03:37:51;95074.00;;;6.23;100.00
4617;BME280;2321;42.704;23.384;2023-12-07T03:40:18;95071.69;;;6.20;100.00
4617;BME280;2321;42.704;23.384;2023-12-07T03:42:45;95077.16;;;6.18;100.00
4617;BME280;2321;42.704;23.384;2023-12-07T03:45:11;95077.66;;;6.14;100.00
4617;BME280;2321;42.704;23.384;2023-12-07T03:47:38;95068.25;;;6.11;100.00
4617;BME280;2321;42.704;23.384;2023-12-07T03:50:05;95077.50;;;6.15;100.00
4617;BME280;2321;42.704;23.384;2023-12-07T03:52:32;95076.69;;;6.15;100.00
4617;BME280;2321;42.704;23.384;2023-12-07T03:55:00;95075.84;;;6.14;100.00
4617;BME280;2321;42.704;23.384;2023-12-07T03:57:28;95072.56;;;6.12;100.00
4617;BME280;2321;42.704;23.384;2023-12-07T03:59:54;95068.09;;;6.13;100.00
4617;BME280;2321;42.704;23.384;2023-12-07T04:02:21;95058.50;;;6.12;100.00
4617;BME280;2321;42.704;23.384;2023-12-07T04:04:48;95062.63;;;6.14;100.00
4617;BME280;2321;42.704;23.384;2023-12-07T04:07:15;95065.13;;;6.16;100.00
4617;BME280;2321;42.704;23.384;2023-12-07T04:09:42;95063.31;;;6.16;100.00
4617;BME280;2321;42.704;23.384;2023-12-07T04:12:10;95044.81;;;6.08;100.00
4617;BME280;2321;42.704;23.384;2023-12-07T04:14:37;95053.38;;;6.18;100.00
4617;BME280;2321;42.704;23.384;2023-12-07T04:17:03;95070.06;;;6.19;100.00
4617;BME280;2321;42.704;23.384;2023-12-07T04:19:30;95066.59;;;6.18;100.00
4617;BME280;2321;42.704;23.384;2023-12-07T04:21:57;95071.22;;;6.16;100.00
4617;BME280;2321;42.704;23.384;2023-12-07T04:24:24;95071.56;;;6.13;100.00
4617;BME280;2321;42.704;23.384;2023-12-07T04:26:50;95079.66;;;6.12;100.00
4617;BME280;2321;42.704;23.384;2023-12-07T04:29:18;95084.94;;;6.12;100.00
4617;BME280;2321;42.704;23.384;2023-12-07T04:31:45;95082.31;;;6.12;100.00
4617;BME280;2321;42.704;23.384;2023-12-07T04:34:12;95083.28;;;6.10;100.00
4617;BME280;2321;42.704;23.384;2023-12-07T04:36:39;95092.25;;;6.09;100.00
4617;BME280;2321;42.704;23.384;2023-12-07T04:39:05;95106.44;;;6.08;100.00
4617;BME280;2321;42.704;23.384;2023-12-07T04:41:33;95101.47;;;6.05;100.00
4617;BME280;2321;42.704;23.384;2023-12-07T04:44:00;95107.28;;;6.09;100.00
4617;BME280;2321;42.704;23.384;2023-12-07T04:46:28;95105.59;;;6.08;100.00
4617;BME280;2321;42.704;23.384;2023-12-07T04:48:55;95105.75;;;6.06;100.00
4617;BME280;2321;42.704;23.384;2023-12-07T04:51:22;95103.13;;;6.06;100.00
4617;BME280;2321;42.704;23.384;2023-12-07T04:53:48;95097.84;;;6.06;100.00
4617;BME280;2321;42.704;23.384;2023-12-07T04:56:15;95101.66;;;6.04;100.00
4617;BME280;2321;42.704;23.384;2023-12-07T04:58:42;95105.59;;;6.08;100.00
4617;BME280;2321;42.704;23.384;2023-12-07T05:01:09;95105.09;;;6.04;100.00
4617;BME280;2321;42.704;23.384;2023-12-07T05:03:37;95106.59;;;5.98;100.00
4617;BME280;2321;42.704;23.384;2023-12-07T05:06:04;95102.81;;;5.93;100.00
4617;BME280;2321;42.704;23.384;2023-12-07T05:08:32;95103.16;;;5.89;100.00
4617;BME280;2321;42.704;23.384;2023-12-07T05:10:59;95103.50;;;5.86;100.00
4617;BME280;2321;42.704;23.384;2023-12-07T05:13:26;95111.78;;;5.83;100.00
4617;BME280;2321;42.704;23.384;2023-12-07T05:15:53;95116.41;;;5.81;100.00
4617;BME280;2321;42.704;23.384;2023-12-07T05:18:20;95108.31;;;5.74;100.00
4617;BME280;2321;42.704;23.384;2023-12-07T05:20:48;95112.13;;;5.72;100.00
4617;BME280;2321;42.704;23.384;2023-12-07T05:23:15;95105.88;;;5.73;100.00
4617;BME280;2321;42.704;23.384;2023-12-07T05:25:41;95113.47;;;5.76;100.00
4617;BME280;2321;42.704;23.384;2023-12-07T05:28:08;95120.22;;;5.78;100.00
4617;BME280;2321;42.704;23.384;2023-12-07T05:30:35;95113.13;;;5.79;100.00
4617;BME280;2321;42.704;23.384;2023-12-07T05:33:02;95111.78;;;5.83;100.00
4617;BME280;2321;42.704;23.384;2023-12-07T05:35:30;95112.09;;;5.88;100.00
4617;BME280;2321;42.704;23.384;2023-12-07T05:37:59;95112.56;;;5.92;100.00
4617;BME280;2321;42.704;23.384;2023-12-07T05:40:26;95116.72;;;5.95;100.00
4617;BME280;2321;42.704;23.384;2023-12-07T05:42:56;95123.13;;;5.92;100.00
4617;BME280;2321;42.704;23.384;2023-12-07T05:45:23;95125.31;;;5.88;100.00
4617;BME280;2321;42.704;23.384;2023-12-07T05:47:51;95121.66;;;5.89;100.00
4617;BME280;2321;42.704;23.384;2023-12-07T05:50:20;95129.09;;;5.94;100.00
4617;BME280;2321;42.704;23.384;2023-12-07T05:52:47;95134.19;;;5.96;100.00
4617;BME280;2321;42.704;23.384;2023-12-07T05:55:19;95131.22;;;5.99;100.00
4617;BME280;2321;42.704;23.384;2023-12-07T05:57:49;95130.22;;;6.00;100.00
4617;BME280;2321;42.704;23.384;2023-12-07T06:00:26;95137.81;;;6.03;100.00
4617;BME280;2321;42.704;23.384;2023-12-07T06:02:59;95138.47;;;6.05;100.00
4617;BME280;2321;42.704;23.384;2023-12-07T06:05:30;95136.47;;;6.07;100.00
4617;BME280;2321;42.704;23.384;2023-12-07T06:07:57;95138.47;;;6.05;100.00
4617;BME280;2321;42.704;23.384;2023-12-07T06:10:25;95141.75;;;6.07;100.00
4617;BME280;2321;42.704;23.384;2023-12-07T06:12:52;95139.28;;;6.06;100.00
4617;BME280;2321;42.704;23.384;2023-12-07T06:15:20;95147.75;;;6.09;100.00
4617;BME280;2321;42.704;23.384;2023-12-07T06:17:48;95153.69;;;6.12;100.00
4617;BME280;2321;42.704;23.384;2023-12-07T06:20:15;95134.84;;;6.06;100.00
4617;BME280;2321;42.704;23.384;2023-12-07T06:22:42;95152.00;;;6.19;100.00
4617;BME280;2321;42.704;23.384;2023-12-07T06:25:09;95152.66;;;6.21;100.00
4617;BME280;2321;42.704;23.384;2023-12-07T06:27:38;95156.28;;;6.20;100.00
4617;BME280;2321;42.704;23.384;2023-12-07T06:30:05;95162.72;;;6.26;100.00
4617;BME280;2321;42.704;23.384;2023-12-07T06:32:32;95156.09;;;6.30;100.00
4617;BME280;2321;42.704;23.384;2023-12-07T06:34:59;95156.91;;;6.30;100.00
4617;BME280;2321;42.704;23.384;2023-12-07T06:37:25;95161.91;;;6.25;100.00
4617;BME280;2321;42.704;23.384;2023-12-07T06:39:52;95143.41;;;6.17;100.00
4617;BME280;2321;42.704;23.384;2023-12-07T06:42:19;95158.75;;;6.30;100.00
4617;BME280;2321;42.704;23.384;2023-12-07T06:44:47;95158.94;;;6.28;100.00
4617;BME280;2321;42.704;23.384;2023-12-07T06:47:15;95162.38;;;6.29;100.00
4617;BME280;2321;42.704;23.384;2023-12-07T06:49:41;95161.56;;;6.28;100.00
4617;BME280;2321;42.704;23.384;2023-12-07T06:52:08;95158.75;;;6.30;100.00
4617;BME280;2321;42.704;23.384;2023-12-07T06:54:36;95166.84;;;6.28;100.00
4617;BME280;2321;42.704;23.384;2023-12-07T06:57:04;95159.91;;;6.27;100.00
4617;BME280;2321;42.704;23.384;2023-12-07T06:59:31;95172.47;;;6.25;100.00
4617;BME280;2321;42.704;23.384;2023-12-07T07:02:00;95173.47;;;6.24;100.00
4617;BME280;2321;42.704;23.384;2023-12-07T07:04:27;95172.00;;;6.21;100.00
4617;BME280;2321;42.704;23.384;2023-12-07T07:06:54;95164.41;;;6.18;100.00
4617;BME280;2321;42.704;23.384;2023-12-07T07:09:21;95165.56;;;6.16;100.00
4617;BME280;2321;42.704;23.384;2023-12-07T07:11:48;95162.25;;;6.14;100.00
4617;BME280;2321;42.704;23.384;2023-12-07T07:14:15;95176.16;;;6.16;100.00
4617;BME280;2321;42.704;23.384;2023-12-07T07:16:42;95165.91;;;6.13;100.00
4617;BME280;2321;42.704;23.384;2023-12-07T07:19:10;95167.38;;;6.07;100.00
4617;BME280;2321;42.704;23.384;2023-12-07T07:21:37;95171.84;;;6.06;100.00
4617;BME280;2321;42.704;23.384;2023-12-07T07:24:03;95173.81;;;6.04;100.00
4617;BME280;2321;42.704;23.384;2023-12-07T07:26:30;95172.50;;;6.00;100.00
4617;BME280;2321;42.704;23.384;2023-12-07T07:28:57;95167.06;;;6.02;100.00
4617;BME280;2321;42.704;23.384;2023-12-07T07:31:24;95170.84;;;5.99;100.00
4617;BME280;2321;42.704;23.384;2023-12-07T07:33:51;95170.84;;;5.99;100.00
4617;BME280;2321;42.704;23.384;2023-12-07T07:36:19;95179.44;;;6.01;100.00
4617;BME280;2321;42.704;23.384;2023-12-07T07:38:46;95187.69;;;6.06;100.00
4617;BME280;2321;42.704;23.384;2023-12-07T07:41:13;95179.63;;;6.08;100.00
4617;BME280;2321;42.704;23.384;2023-12-07T07:43:40;95184.22;;;6.06;100.00
4617;BME280;2321;42.704;23.384;2023-12-07T07:46:06;95188.03;;;6.03;100.00
4617;BME280;2321;42.704;23.384;2023-12-07T07:48:34;95194.66;;;5.99;100.00
4617;BME280;2321;42.704;23.384;2023-12-07T07:51:02;95197.63;;;5.96;100.00
4617;BME280;2321;42.704;23.384;2023-12-07T07:53:30;95198.63;;;5.95;100.00
4617;BME280;2321;42.704;23.384;2023-12-07T07:55:57;95199.44;;;5.95;100.00
4617;BME280;2321;42.704;23.384;2023-12-07T07:58:24;95197.47;;;5.89;100.00
4617;BME280;2321;42.704;23.384;2023-12-07T08:00:51;95204.25;;;5.83;100.00
4617;BME280;2321;42.704;23.384;2023-12-07T08:03:17;95203.59;;;5.81;100.00
4617;BME280;2321;42.704;23.384;2023-12-07T08:05:44;95215.81;;;5.74;100.00
4617;BME280;2321;42.704;23.384;2023-12-07T08:08:11;95218.31;;;5.67;100.00
4617;BME280;2321;42.704;23.384;2023-12-07T08:10:39;95222.41;;;5.61;100.00
4617;BME280;2321;42.704;23.384;2023-12-07T08:13:06;95213.84;;;5.51;100.00
4617;BME280;2321;42.704;23.384;2023-12-07T08:15:33;95210.88;;;5.45;100.00
4617;BME280;2321;42.704;23.384;2023-12-07T08:17:59;95221.91;;;5.49;100.00
4617;BME280;2321;42.704;23.384;2023-12-07T08:20:27;95225.53;;;5.40;100.00
4617;BME280;2321;42.704;23.384;2023-12-07T08:22:54;95220.44;;;5.38;100.00
4617;BME280;2321;42.704;23.384;2023-12-07T08:25:20;95228.53;;;5.37;100.00
4617;BME280;2321;42.704;23.384;2023-12-07T08:27:49;95227.72;;;5.36;100.00
4617;BME280;2321;42.704;23.384;2023-12-07T08:30:15;95228.19;;;5.40;100.00
4617;BME280;2321;42.704;23.384;2023-12-07T08:32:44;95230.34;;;5.36;100.00
4617;BME280;2321;42.704;23.384;2023-12-07T08:35:10;95230.34;;;5.36;100.00
4617;BME280;2321;42.704;23.384;2023-12-07T08:37:37;95232.47;;;5.32;100.00
4617;BME280;2321;42.704;23.384;2023-12-07T08:40:06;95238.56;;;5.25;100.00
4617;BME280;2321;42.704;23.384;2023-12-07T08:42:36;95232.94;;;5.19;100.00
4617;BME280;2321;42.704;23.384;2023-12-07T08:45:05;95239.22;;;5.18;100.00
4617;BME280;2321;42.704;23.384;2023-12-07T08:47:33;95242.34;;;5.14;100.00
4617;BME280;2321;42.704;23.384;2023-12-07T08:49:59;95230.97;;;5.13;100.00
4617;BME280;2321;42.704;23.384;2023-12-07T08:52:26;95245.16;;;5.12;100.00
4617;BME280;2321;42.704;23.384;2023-12-07T08:54:53;95243.19;;;5.14;100.00
4617;BME280;2321;42.704;23.384;2023-12-07T08:57:20;95243.19;;;5.14;100.00
4617;BME280;2321;42.704;23.384;2023-12-07T08:59:46;95240.88;;;5.19;100.00
4617;BME280;2321;42.704;23.384;2023-12-07T09:02:15;95240.53;;;5.22;100.00
4617;BME280;2321;42.704;23.384;2023-12-07T09:04:41;95241.19;;;5.16;100.00
4617;BME280;2321;42.704;23.384;2023-12-07T09:07:08;95245.00;;;5.14;100.00
4617;BME280;2321;42.704;23.384;2023-12-07T09:09:36;95242.84;;;5.09;100.00
4617;BME280;2321;42.704;23.384;2023-12-07T09:12:03;95246.78;;;5.05;100.00
4617;BME280;2321;42.704;23.384;2023-12-07T09:14:30;95245.28;;;5.02;100.00
4617;BME280;2321;42.704;23.384;2023-12-07T09:16:57;95246.13;;;5.03;100.00
4617;BME280;2321;42.704;23.384;2023-12-07T09:19:25;95250.06;;;4.98;100.00
4617;BME280;2321;42.704;23.384;2023-12-07T09:21:51;95252.38;;;5.01;100.00
4617;BME280;2321;42.704;23.384;2023-12-07T09:24:18;95253.34;;;5.00;100.00
4617;BME280;2321;42.704;23.384;2023-12-07T09:26:45;95255.00;;;4.93;100.00
4617;BME280;2321;42.704;23.384;2023-12-07T09:29:13;95258.09;;;4.88;100.00
4617;BME280;2321;42.704;23.384;2023-12-07T09:31:40;95254.78;;;4.78;100.00
4617;BME280;2321;42.704;23.384;2023-12-07T09:34:06;95261.88;;;4.77;100.00
4617;BME280;2321;42.704;23.384;2023-12-07T09:36:35;95249.84;;;4.75;100.00
4617;BME280;2321;42.704;23.384;2023-12-07T09:39:01;95253.97;;;4.77;100.00
4617;BME280;2321;42.704;23.384;2023-12-07T09:41:29;95255.13;;;4.83;100.00
4617;BME280;2321;42.704;23.384;2023-12-07T09:43:55;95244.91;;;4.80;100.00
4617;BME280;2321;42.704;23.384;2023-12-07T09:46:22;95250.16;;;4.72;100.00
4617;BME280;2321;42.704;23.384;2023-12-07T09:48:49;95256.06;;;4.65;100.00
4617;BME280;2321;42.704;23.384;2023-12-07T09:51:16;95251.88;;;4.54;100.00
4617;BME280;2321;42.704;23.384;2023-12-07T09:53:45;95253.97;;;4.42;100.00
4617;BME280;2321;42.704;23.384;2023-12-07T09:56:16;95250.47;;;4.33;100.00
4617;BME280;2321;42.704;23.384;2023-12-07T09:58:42;95248.44;;;4.27;100.00
4617;BME280;2321;42.704;23.384;2023-12-07T10:01:09;95252.69;;;4.20;100.00
4617;BME280;2321;42.704;23.384;2023-12-07T10:03:39;95254.66;;;4.18;100.00
4617;BME280;2321;42.704;23.384;2023-12-07T10:06:06;95255.47;;;4.18;100.00
4617;BME280;2321;42.704;23.384;2023-12-07T10:08:33;95253.31;;;4.13;100.00
4617;BME280;2321;42.704;23.384;2023-12-07T10:11:03;95248.66;;;4.07;100.00
4617;BME280;2321;42.704;23.384;2023-12-07T10:13:30;95245.34;;;4.05;100.00
4617;BME280;2321;42.704;23.384;2023-12-07T10:16:04;95245.34;;;4.05;100.00
4617;BME280;2321;42.704;23.384;2023-12-07T10:18:31;95249.13;;;4.02;100.00
4617;BME280;2321;42.704;23.384;2023-12-07T10:20:59;95249.91;;;3.95;100.00
4617;BME280;2321;42.704;23.384;2023-12-07T10:23:26;95248.16;;;4.03;100.00
4617;BME280;2321;42.704;23.384;2023-12-07T10:25:53;95245.88;;;4.09;100.00
4617;BME280;2321;42.704;23.384;2023-12-07T10:28:22;95243.22;;;4.09;100.00
4617;BME280;2321;42.704;23.384;2023-12-07T10:30:50;95245.00;;;4.00;100.00
4617;BME280;2321;42.704;23.384;2023-12-07T10:33:19;95249.38;;;3.91;100.00
4617;BME280;2321;42.704;23.384;2023-12-07T10:35:47;95253.81;;;3.90;100.00
4617;BME280;2321;42.704;23.384;2023-12-07T10:38:15;95245.56;;;3.85;100.00
4617;BME280;2321;42.704;23.384;2023-12-07T10:40:45;95249.31;;;3.83;100.00
4617;BME280;2321;42.704;23.384;2023-12-07T10:43:15;95251.78;;;3.84;100.00
4617;BME280;2321;42.704;23.384;2023-12-07T10:45:47;95247.38;;;3.85;100.00
4617;BME280;2321;42.704;23.384;2023-12-07T10:48:15;95247.72;;;3.90;100.00
4617;BME280;2321;42.704;23.384;2023-12-07T10:50:45;95246.22;;;3.87;100.00
4617;BME280;2321;42.704;23.384;2023-12-07T10:53:20;95253.41;;;3.77;100.00
4617;BME280;2321;42.704;23.384;2023-12-07T10:55:53;95236.72;;;3.68;100.00
4617;BME280;2321;42.704;23.384;2023-12-07T10:58:22;95236.84;;;3.66;100.00
4617;BME280;2321;42.704;23.384;2023-12-07T11:00:52;95241.47;;;3.64;100.00
4617;BME280;2321;42.704;23.384;2023-12-07T11:03:19;95243.78;;;3.67;100.00
4617;BME280;2321;42.704;23.384;2023-12-07T11:05:48;95242.66;;;3.70;100.00
4617;BME280;2321;42.704;23.384;2023-12-07T11:08:21;95233.91;;;3.69;100.00
4617;BME280;2321;42.704;23.384;2023-12-07T11:10:57;95249.66;;;3.61;100.00
4617;BME280;2321;42.704;23.384;2023-12-07T11:13:29;95242.66;;;3.52;100.00
4617;BME280;2321;42.704;23.384;2023-12-07T11:16:00;95219.72;;;3.25;100.00
4617;BME280;2321;42.704;23.384;2023-12-07T11:18:27;95246.50;;;3.39;100.00
4617;BME280;2321;42.704;23.384;2023-12-07T11:20:55;95240.34;;;3.30;100.00
4617;BME280;2321;42.704;23.384;2023-12-07T11:23:23;95244.94;;;3.28;100.00
4617;BME280;2321;42.704;23.384;2023-12-07T11:25:51;95245.75;;;3.29;100.00
4617;BME280;2321;42.704;23.384;2023-12-07T11:28:34;95241.63;;;3.26;100.00
4617;BME280;2321;42.704;23.384;2023-12-07T11:31:03;95242.16;;;3.30;100.00
4617;BME280;2321;42.704;23.384;2023-12-07T11:33:30;95241.63;;;3.26;100.00
4617;BME280;2321;42.704;23.384;2023-12-07T11:36:04;95238.97;;;3.26;100.00
4617;BME280;2321;42.704;23.384;2023-12-07T11:38:32;95230.84;;;3.19;100.00
4617;BME280;2321;42.704;23.384;2023-12-07T11:41:00;95227.84;;;3.14;100.00
4617;BME280;2321;42.704;23.384;2023-12-07T11:43:40;95221.69;;;3.05;100.00
4617;BME280;2321;42.704;23.384;2023-12-07T11:46:12;95223.19;;;3.08;100.00
4617;BME280;2321;42.704;23.384;2023-12-07T11:48:46;95227.56;;;3.17;100.00
4617;BME280;2321;42.704;23.384;2023-12-07T11:51:15;95226.13;;;3.23;100.00
4617;BME280;2321;42.704;23.384;2023-12-07T11:53:43;95235.91;;;3.31;100.00
4617;BME280;2321;42.704;23.384;2023-12-07T11:56:10;95225.28;;;3.22;100.00
4617;BME280;2321;42.704;23.384;2023-12-07T11:58:39;95218.28;;;3.13;100.00
4617;BME280;2321;42.704;23.384;2023-12-07T12:01:06;95222.06;;;3.10;100.00
4617;BME280;2321;42.704;23.384;2023-12-07T12:03:35;95221.16;;;3.20;100.00
4617;BME280;2321;42.704;23.384;2023-12-07T12:06:04;95221.63;;;3.15;100.00
4617;BME280;2321;42.704;23.384;2023-12-07T12:08:31;95220.25;;;3.11;100.00
4617;BME280;2321;42.704;23.384;2023-12-07T12:10:59;95211.34;;;3.03;100.00
4617;BME280;2321;42.704;23.384;2023-12-07T12:13:27;95223.34;;;3.06;100.00
4617;BME280;2321;42.704;23.384;2023-12-07T12:15:55;95224.31;;;3.05;100.00
4617;BME280;2321;42.704;23.384;2023-12-07T12:18:22;95220.72;;;3.06;100.00
4617;BME280;2321;42.704;23.384;2023-12-07T12:20:53;95228.22;;;3.01;100.00
4617;BME280;2321;42.704;23.384;2023-12-07T12:23:20;95223.94;;;3.00;100.00
4617;BME280;2321;42.704;23.384;2023-12-07T12:25:47;95224.63;;;3.02;100.00
4617;BME280;2321;42.704;23.384;2023-12-07T12:28:16;95212.44;;;3.01;100.00
4617;BME280;2321;42.704;23.384;2023-12-07T12:30:45;95223.66;;;3.03;100.00
4617;BME280;2321;42.704;23.384;2023-12-07T12:33:13;95226.66;;;3.08;100.00
4617;BME280;2321;42.704;23.384;2023-12-07T12:35:40;95234.00;;;3.04;100.00
4617;BME280;2321;42.704;23.384;2023-12-07T12:38:11;95233.72;;;3.08;100.00
4617;BME280;2321;42.704;23.384;2023-12-07T12:40:38;95217.94;;;3.08;100.00
4617;BME280;2321;42.704;23.384;2023-12-07T12:43:07;95223.72;;;3.11;100.00
4617;BME280;2321;42.704;23.384;2023-12-07T12:45:36;95228.53;;;3.16;100.00
4617;BME280;2321;42.704;23.384;2023-12-07T12:48:04;95229.53;;;3.15;100.00
4617;BME280;2321;42.704;23.384;2023-12-07T12:50:34;95234.78;;;3.15;100.00
4617;BME280;2321;42.704;23.384;2023-12-07T12:53:03;95231.31;;;3.14;100.00
4617;BME280;2321;42.704;23.384;2023-12-07T12:55:33;95233.66;;;3.18;100.00
4617;BME280;2321;42.704;23.384;2023-12-07T12:58:00;95245.69;;;3.20;100.00
4617;BME280;2321;42.704;23.384;2023-12-07T13:00:29;95238.75;;;3.19;100.00
4617;BME280;2321;42.704;23.384;2023-12-07T13:02:56;95239.59;;;3.20;100.00
4617;BME280;2321;42.704;23.384;2023-12-07T13:05:23;95245.75;;;3.10;100.00
4617;BME280;2321;42.704;23.384;2023-12-07T13:07:49;95248.44;;;3.00;100.00
4617;BME280;2321;42.704;23.384;2023-12-07T13:10:16;95240.47;;;2.92;100.00
4617;BME280;2321;42.704;23.384;2023-12-07T13:12:44;95256.53;;;2.89;100.00
4617;BME280;2321;42.704;23.384;2023-12-07T13:15:11;95256.97;;;2.84;100.00